createdAt,value
2023-05-14T00:03:29.945Z,100467.34
2023-05-14T00:07:33.077Z,100476.06
2023-05-14T00:11:46.749Z,100468.19
2023-05-14T00:15:50.981Z,100463.31
2023-05-14T00:20:02.582Z,100464.31
2023-05-14T00:24:06.079Z,100461.03
2023-05-14T00:28:10.224Z,100454.06
2023-05-14T00:32:12.786Z,100462.91
2023-05-14T00:36:15.672Z,100457.94
2023-05-14T00:40:22.110Z,100460.03
2023-05-14T00:44:26.258Z,100453.25
2023-05-14T00:48:29.168Z,100449.84
2023-05-14T00:52:32.746Z,100456.06
2023-05-14T00:56:37.003Z,100453.44
2023-05-14T01:00:42.638Z,100447.16
2023-05-14T01:04:50.293Z,100453.91
2023-05-14T01:09:02.779Z,100459.16
2023-05-14T01:13:13.259Z,100454.16
2023-05-14T01:17:20.306Z,100452.34
2023-05-14T01:21:38.178Z,100453.66
2023-05-14T01:25:41.166Z,100451.34
2023-05-14T01:29:51.352Z,100443.81
2023-05-14T01:33:56.253Z,100442.38
2023-05-14T01:38:03.445Z,100441.03
2023-05-14T01:42:08.535Z,100437.00
2023-05-14T01:46:11.589Z,100438.84
2023-05-14T01:50:14.861Z,100436.44
2023-05-14T01:54:18.862Z,100430.59
2023-05-14T01:58:21.662Z,100434.38
2023-05-14T02:02:24.642Z,100438.22
2023-05-14T02:06:27.356Z,100422.88
2023-05-14T02:10:31.424Z,100423.88
2023-05-14T02:14:34.622Z,100420.59
2023-05-14T02:18:37.194Z,100417.25
2023-05-14T02:22:42.343Z,100418.19
2023-05-14T02:26:46.570Z,100423.00
2023-05-14T02:30:49.302Z,100428.16
2023-05-14T02:34:51.714Z,100426.66
2023-05-14T02:38:54.518Z,100420.91
2023-05-14T02:42:58.834Z,100416.34
2023-05-14T02:47:01.873Z,100409.31
2023-05-14T02:51:05.135Z,100414.47
2023-05-14T02:55:08.649Z,100413.56
2023-05-14T02:59:12.435Z,100419.41
2023-05-14T03:03:16.032Z,100418.50
2023-05-14T03:07:19.071Z,100416.81
2023-05-14T03:11:22.481Z,100412.25
2023-05-14T03:15:28.582Z,100402.53
2023-05-14T03:19:31.517Z,100402.25
2023-05-14T03:23:35.237Z,100400.97
2023-05-14T03:27:37.684Z,100397.72
2023-05-14T03:31:42.220Z,100401.78
2023-05-14T03:35:45.197Z,100402.47
2023-05-14T03:39:48.322Z,100398.31
2023-05-14T03:43:51.161Z,100390.88
2023-05-14T03:47:55.638Z,100389.38
2023-05-14T03:51:59.660Z,100390.19
2023-05-14T03:56:02.766Z,100391.59
2023-05-14T04:00:06.255Z,100390.63
2023-05-14T04:04:10.918Z,100388.91
2023-05-14T04:08:13.994Z,100391.63
2023-05-14T04:12:17.116Z,100391.22
2023-05-14T04:16:20.288Z,100394.00
2023-05-14T04:20:24.700Z,100401.28
2023-05-14T04:24:27.844Z,100403.69
2023-05-14T04:28:31.005Z,100404.00
2023-05-14T04:32:33.785Z,100403.09
2023-05-14T04:36:37.766Z,100394.53
2023-05-14T04:40:41.625Z,100396.25
2023-05-14T04:44:44.571Z,100392.91
2023-05-14T04:48:48.046Z,100402.06
2023-05-14T04:52:52.746Z,100395.44
2023-05-14T04:56:56.507Z,100404.94
2023-05-14T05:01:03.031Z,100400.06
2023-05-14T05:05:06.588Z,100400.41
2023-05-14T05:09:11.155Z,100406.00
2023-05-14T05:13:14.486Z,100415.59
2023-05-14T05:17:17.380Z,100407.97
2023-05-14T05:21:20.542Z,100407.88
2023-05-14T05:25:25.525Z,100408.84
2023-05-14T05:29:28.636Z,100408.56
2023-05-14T05:33:31.709Z,100417.03
2023-05-14T05:37:34.591Z,100423.41
2023-05-14T05:41:38.776Z,100413.69
2023-05-14T05:45:42.252Z,100418.97
2023-05-14T05:49:45.264Z,100411.69
2023-05-14T05:53:48.698Z,100407.88
2023-05-14T05:57:53.322Z,100412.81
2023-05-14T06:01:56.321Z,100414.75
2023-05-14T06:05:59.384Z,100410.94
2023-05-14T06:10:02.434Z,100410.50
2023-05-14T06:14:07.174Z,100411.72
2023-05-14T06:18:10.334Z,100415.38
2023-05-14T06:22:14.812Z,100412.59
2023-05-14T06:26:18.037Z,100411.03
2023-05-14T06:30:23.214Z,100423.72
2023-05-14T06:34:26.263Z,100416.28
2023-05-14T06:38:29.306Z,100417.09
2023-05-14T06:42:31.960Z,100412.28
2023-05-14T06:46:36.528Z,100410.03
2023-05-14T06:50:39.592Z,100398.91
2023-05-14T06:54:42.858Z,100409.25
2023-05-14T06:58:45.910Z,100397.19
2023-05-14T07:02:53.562Z,100395.47
2023-05-14T07:06:56.749Z,100395.31
2023-05-14T07:11:00.506Z,100396.28
2023-05-14T07:15:03.506Z,100390.78
2023-05-14T07:19:07.995Z,100407.69
2023-05-14T07:23:10.741Z,100391.09
2023-05-14T07:27:13.374Z,100416.56
2023-05-14T07:31:16.004Z,100399.03
2023-05-14T07:35:22.787Z,100394.00
2023-05-14T07:39:28.586Z,100394.59
2023-05-14T07:43:31.889Z,100384.25
2023-05-14T07:47:34.841Z,100379.59
2023-05-14T07:51:39.324Z,100387.00
2023-05-14T07:55:42.350Z,100374.88
2023-05-14T07:59:45.762Z,100366.78
2023-05-14T08:03:48.868Z,100354.94
2023-05-14T08:07:53.356Z,100354.25
2023-05-14T08:11:56.237Z,100352.13
2023-05-14T08:15:59.268Z,100349.78
2023-05-14T08:20:02.361Z,100336.94
2023-05-14T08:24:07.276Z,100344.63
2023-05-14T08:28:10.128Z,100357.59
2023-05-14T08:32:22.899Z,100341.09
2023-05-14T08:36:26.520Z,100342.53
2023-05-14T08:40:33.149Z,100350.56
2023-05-14T08:44:41.044Z,100340.66
2023-05-14T08:48:48.168Z,100335.91
2023-05-14T08:52:50.998Z,100328.44
2023-05-14T08:56:55.917Z,100345.28
2023-05-14T09:01:00.743Z,100337.41
2023-05-14T09:05:04.498Z,100333.03
2023-05-14T09:09:07.462Z,100339.44
2023-05-14T09:13:12.121Z,100320.94
2023-05-14T09:17:15.421Z,100332.53
2023-05-14T09:21:20.047Z,100313.03
2023-05-14T09:25:28.637Z,100326.88
2023-05-14T09:29:33.103Z,100319.97
2023-05-14T09:33:37.269Z,100317.47
2023-05-14T09:37:43.904Z,100312.06
2023-05-14T09:41:47.076Z,100308.50
2023-05-14T09:45:51.534Z,100299.03
2023-05-14T09:49:54.706Z,100309.81
2023-05-14T09:53:57.595Z,100284.75
2023-05-14T09:58:00.945Z,100294.72
2023-05-14T10:02:06.952Z,100286.97
2023-05-14T10:06:14.633Z,100272.22
2023-05-14T10:10:20.272Z,100279.78
2023-05-14T10:14:30.851Z,100277.28
2023-05-14T10:18:41.355Z,100277.75
2023-05-14T10:22:44.372Z,100256.56
2023-05-14T10:26:47.343Z,100263.44
2023-05-14T10:30:51.429Z,100251.38
2023-05-14T10:34:55.895Z,100255.34
2023-05-14T10:38:58.934Z,100228.44
2023-05-14T10:43:02.013Z,100207.81
2023-05-14T10:47:05.466Z,100219.88
2023-05-14T10:51:11.873Z,100204.22
2023-05-14T10:55:17.299Z,100192.28
2023-05-14T10:59:20.207Z,100193.91
2023-05-14T11:03:23.641Z,100196.84
2023-05-14T11:07:30.502Z,100200.72
2023-05-14T11:11:34.100Z,100196.78
2023-05-14T11:15:38.506Z,100176.31
2023-05-14T11:19:44.255Z,100160.63
2023-05-14T11:23:49.909Z,100156.69
2023-05-14T11:27:56.229Z,100146.88
2023-05-14T11:31:59.850Z,100145.78
2023-05-14T11:36:03.291Z,100134.69
2023-05-14T11:40:11.158Z,100140.09
2023-05-14T11:44:14.501Z,100137.78
2023-05-14T11:48:18.330Z,100124.41
2023-05-14T11:52:22.340Z,100126.94
2023-05-14T11:56:26.732Z,100111.94
2023-05-14T12:00:29.509Z,100112.28
2023-05-14T12:04:33.190Z,100103.41
2023-05-14T12:08:36.181Z,100112.16
2023-05-14T12:12:40.515Z,100106.91
2023-05-14T12:16:44.866Z,100113.78
2023-05-14T12:20:49.067Z,100109.53
2023-05-14T12:24:58.806Z,100103.50
2023-05-14T12:29:05.068Z,100112.91
2023-05-14T12:33:08.074Z,100101.31
2023-05-14T12:37:11.081Z,100091.25
2023-05-14T12:41:13.918Z,100079.31
2023-05-14T12:45:18.244Z,100086.41
2023-05-14T12:49:20.961Z,100065.91
2023-05-14T12:53:24.220Z,100092.78
2023-05-14T12:57:27.926Z,100071.38
2023-05-14T13:01:32.300Z,100067.06
2023-05-14T13:05:35.548Z,100062.28
2023-05-14T13:09:38.530Z,100059.47
2023-05-14T13:13:41.310Z,100049.00
2023-05-14T13:17:45.785Z,100055.03
2023-05-14T13:21:48.754Z,100027.31
2023-05-14T13:25:51.920Z,100034.84
2023-05-14T13:29:54.845Z,100043.19
2023-05-14T13:33:59.721Z,100042.28
2023-05-14T13:38:03.223Z,100030.50
2023-05-14T13:42:07.072Z,100018.59
2023-05-14T13:46:09.626Z,99998.94
2023-05-14T13:50:15.027Z,100007.59
2023-05-14T13:54:18.188Z,99993.25
2023-05-14T13:58:21.180Z,99991.69
2023-05-14T14:02:24.329Z,99974.06
2023-05-14T14:06:29.093Z,99979.28
2023-05-14T14:10:32.487Z,99976.44
2023-05-14T14:14:35.825Z,99968.31
2023-05-14T14:18:39.155Z,99958.44
2023-05-14T14:22:44.899Z,99965.22
2023-05-14T14:26:47.948Z,99972.00
2023-05-14T14:30:54.371Z,99954.94
2023-05-14T14:34:59.283Z,99949.22
2023-05-14T14:39:03.834Z,99946.78
2023-05-14T14:43:06.943Z,99949.16
2023-05-14T14:47:10.161Z,99940.78
2023-05-14T14:51:13.533Z,99933.09
2023-05-14T14:55:17.893Z,99933.66
2023-05-14T14:59:20.986Z,99929.72
2023-05-14T15:03:25.428Z,99933.69
2023-05-14T15:07:33.100Z,99937.34
2023-05-14T15:11:40.206Z,99935.25
2023-05-14T15:15:43.192Z,99927.38
2023-05-14T15:19:46.124Z,99938.63
2023-05-14T15:23:50.065Z,99924.16
2023-05-14T15:27:54.351Z,99921.19
2023-05-14T15:31:57.397Z,99929.78
2023-05-14T15:36:00.228Z,99915.44
2023-05-14T15:40:03.322Z,99916.78
2023-05-14T15:44:08.114Z,99907.88
2023-05-14T15:48:11.117Z,99904.69
2023-05-14T15:52:15.464Z,99914.94
2023-05-14T15:56:18.640Z,99901.91
2023-05-14T16:00:25.121Z,99893.34
2023-05-14T16:04:28.650Z,99893.22
2023-05-14T16:08:31.789Z,99892.72
2023-05-14T16:12:36.588Z,99884.53
2023-05-14T16:16:40.989Z,99874.97
2023-05-14T16:20:43.991Z,99866.81
2023-05-14T16:24:47.330Z,99860.44
2023-05-14T16:28:49.972Z,99866.03
2023-05-14T16:32:54.427Z,99855.91
2023-05-14T16:36:57.607Z,99860.81
2023-05-14T16:41:00.684Z,99846.88
2023-05-14T16:45:04.198Z,99844.38
2023-05-14T16:49:08.282Z,99843.06
2023-05-14T16:53:11.347Z,99834.03
2023-05-14T16:57:14.083Z,99832.22
2023-05-14T17:01:17.548Z,99836.56
2023-05-14T17:05:22.326Z,99843.28
2023-05-14T17:09:27.366Z,99839.72
2023-05-14T17:13:30.436Z,99840.06
2023-05-14T17:17:53.019Z,99843.19
2023-05-14T17:21:57.344Z,99847.38
2023-05-14T17:26:00.517Z,99841.84
2023-05-14T17:30:03.848Z,99836.97
2023-05-14T17:34:10.818Z,99841.81
2023-05-14T17:38:15.445Z,99829.69
2023-05-14T17:42:18.455Z,99825.53
2023-05-14T17:46:21.449Z,99827.63
2023-05-14T17:50:24.681Z,99822.06
2023-05-14T17:54:29.127Z,99831.66
2023-05-14T17:58:32.291Z,99822.78
2023-05-14T18:02:35.538Z,99822.41
2023-05-14T18:06:38.896Z,99815.63
2023-05-14T18:10:43.286Z,99828.19
2023-05-14T18:14:46.313Z,99822.63
2023-05-14T18:18:51.774Z,99820.25
2023-05-14T18:22:54.953Z,99818.25
2023-05-14T18:27:00.020Z,99824.47
2023-05-14T18:31:05.899Z,99819.16
2023-05-14T18:35:09.510Z,99820.06
2023-05-14T18:39:12.396Z,99830.03
2023-05-14T18:43:18.484Z,99829.47
2023-05-14T18:47:21.541Z,99827.91
2023-05-14T18:51:25.076Z,99825.19
2023-05-14T18:55:28.821Z,99824.44
2023-05-14T18:59:33.513Z,99816.50
2023-05-14T19:03:42.664Z,99816.53
2023-05-14T19:07:48.179Z,99804.81
2023-05-14T19:11:51.179Z,99801.22
2023-05-14T19:15:57.114Z,99792.47
2023-05-14T19:20:00.393Z,99790.59
2023-05-14T19:24:03.776Z,99803.94
2023-05-14T19:28:07.628Z,99792.66
2023-05-14T19:32:12.364Z,99791.47
2023-05-14T19:36:15.393Z,99790.66
2023-05-14T19:40:20.406Z,99783.78
2023-05-14T19:44:23.242Z,99783.94
2023-05-14T19:48:28.162Z,99791.25
2023-05-14T19:52:30.960Z,99779.44
2023-05-14T19:56:34.465Z,99779.09
2023-05-14T20:00:37.886Z,99775.13
2023-05-14T20:04:42.886Z,99767.28
2023-05-14T20:08:46.627Z,99771.53
2023-05-14T20:12:49.618Z,99762.13
2023-05-14T20:16:53.308Z,99761.66
2023-05-14T20:20:57.465Z,99761.16
2023-05-14T20:25:00.533Z,99759.38
2023-05-14T20:29:04.260Z,99757.06
2023-05-14T20:33:09.197Z,99752.25
2023-05-14T20:37:15.491Z,99745.19
2023-05-14T20:41:18.235Z,99741.25
2023-05-14T20:45:21.210Z,99734.13
2023-05-14T20:49:24.210Z,99719.72
2023-05-14T20:53:33.402Z,99724.44
2023-05-14T20:57:36.175Z,99719.19
2023-05-14T21:01:39.145Z,99718.91
2023-05-14T21:05:43.887Z,99714.69
2023-05-14T21:09:52.703Z,99718.28
2023-05-14T21:14:01.297Z,99707.81
2023-05-14T21:18:05.210Z,99700.53
2023-05-14T21:22:08.097Z,99700.44
2023-05-14T21:26:12.873Z,99702.28
2023-05-14T21:30:16.491Z,99695.28
2023-05-14T21:34:19.786Z,99688.56
2023-05-14T21:38:22.869Z,99689.84
2023-05-14T21:42:27.206Z,99682.56
2023-05-14T21:46:30.380Z,99682.44
2023-05-14T21:50:33.981Z,99671.00
2023-05-14T21:54:36.757Z,99672.25
2023-05-14T21:58:41.727Z,99673.19
2023-05-14T22:02:44.911Z,99659.31
2023-05-14T22:06:48.562Z,99651.22
2023-05-14T22:10:53.621Z,99649.25
2023-05-14T22:14:59.253Z,99641.28
2023-05-14T22:19:02.617Z,99640.72
2023-05-14T22:23:06.275Z,99640.16
2023-05-14T22:27:09.055Z,99627.41
2023-05-14T22:31:13.406Z,99635.41
2023-05-14T22:35:16.176Z,99623.78
2023-05-14T22:39:19.382Z,99620.84
2023-05-14T22:43:22.226Z,99613.44
2023-05-14T22:47:27.205Z,99612.31
2023-05-14T22:51:30.267Z,99609.94
2023-05-14T22:55:33.308Z,99601.28
2023-05-14T22:59:36.866Z,99594.25
2023-05-14T23:03:40.769Z,99593.56
2023-05-14T23:07:43.844Z,99586.03
2023-05-14T23:11:49.055Z,99582.38
2023-05-14T23:15:52.115Z,99574.25
2023-05-14T23:19:56.760Z,99564.03
2023-05-14T23:23:59.652Z,99566.28
2023-05-14T23:28:02.431Z,99566.25
2023-05-14T23:32:05.648Z,99557.16
2023-05-14T23:36:11.697Z,99551.28
2023-05-14T23:40:15.945Z,99540.94
2023-05-14T23:44:19.173Z,99532.00
2023-05-14T23:48:21.555Z,99529.63
2023-05-14T23:52:25.598Z,99533.94
2023-05-14T23:56:29.396Z,99515.22
